sensor_id;sensor_type;location;lat;lon;timestamp;P1;durP1;ratioP1;P2;durP2;ratioP2
54197;SDS011;40105;52.366;17.000;2023-03-14T00:02:06;4.80;;;2.60;;
54197;SDS011;40105;52.366;17.000;2023-03-14T00:04:32;10.23;;;2.90;;
54197;SDS011;40105;52.366;17.000;2023-03-14T00:06:57;7.70;;;3.43;;
54197;SDS011;40105;52.366;17.000;2023-03-14T00:09:22;8.00;;;2.57;;
54197;SDS011;40105;52.366;17.000;2023-03-14T00:11:47;4.20;;;2.10;;
54197;SDS011;40105;52.366;17.000;2023-03-14T00:14:12;7.23;;;2.77;;
54197;SDS011;40105;52.366;17.000;2023-03-14T00:16:37;5.95;;;2.65;;
54197;SDS011;40105;52.366;17.000;2023-03-14T00:19:03;4.77;;;2.00;;
54197;SDS011;40105;52.366;17.000;2023-03-14T00:21:28;17.67;;;2.53;;
54197;SDS011;40105;52.366;17.000;2023-03-14T00:23:53;4.87;;;2.60;;
54197;SDS011;40105;52.366;17.000;2023-03-14T00:26:19;11.20;;;2.80;;
54197;SDS011;40105;52.366;17.000;2023-03-14T00:28:45;7.28;;;2.58;;
54197;SDS011;40105;52.366;17.000;2023-03-14T00:33:54;7.20;;;2.60;;
54197;SDS011;40105;52.366;17.000;2023-03-14T00:36:20;8.73;;;2.13;;
54197;SDS011;40105;52.366;17.000;2023-03-14T00:38:46;14.50;;;2.92;;
54197;SDS011;40105;52.366;17.000;2023-03-14T00:41:13;8.65;;;2.97;;
54197;SDS011;40105;52.366;17.000;2023-03-14T00:43:39;8.02;;;2.80;;
54197;SDS011;40105;52.366;17.000;2023-03-14T00:46:04;11.40;;;3.78;;
54197;SDS011;40105;52.366;17.000;2023-03-14T00:48:29;3.28;;;1.90;;
54197;SDS011;40105;52.366;17.000;2023-03-14T00:50:55;5.83;;;2.50;;
54197;SDS011;40105;52.366;17.000;2023-03-14T00:53:20;4.40;;;2.30;;
54197;SDS011;40105;52.366;17.000;2023-03-14T00:55:45;11.10;;;2.05;;
54197;SDS011;40105;52.366;17.000;2023-03-14T00:58:11;6.80;;;2.42;;
54197;SDS011;40105;52.366;17.000;2023-03-14T01:00:36;3.08;;;1.48;;
54197;SDS011;40105;52.366;17.000;2023-03-14T01:03:02;3.60;;;1.80;;
54197;SDS011;40105;52.366;17.000;2023-03-14T01:05:27;5.60;;;1.52;;
54197;SDS011;40105;52.366;17.000;2023-03-14T01:07:53;3.70;;;1.58;;
54197;SDS011;40105;52.366;17.000;2023-03-14T01:10:18;4.20;;;1.43;;
54197;SDS011;40105;52.366;17.000;2023-03-14T01:12:43;2.75;;;1.30;;
54197;SDS011;40105;52.366;17.000;2023-03-14T01:15:08;3.00;;;1.30;;
54197;SDS011;40105;52.366;17.000;2023-03-14T01:17:34;2.38;;;1.05;;
54197;SDS011;40105;52.366;17.000;2023-03-14T01:20:00;2.17;;;1.15;;
54197;SDS011;40105;52.366;17.000;2023-03-14T01:22:25;1.90;;;1.10;;
54197;SDS011;40105;52.366;17.000;2023-03-14T01:25:11;1.92;;;0.98;;
54197;SDS011;40105;52.366;17.000;2023-03-14T01:27:36;1.85;;;0.85;;
54197;SDS011;40105;52.366;17.000;2023-03-14T01:32:46;2.92;;;0.73;;
54197;SDS011;40105;52.366;17.000;2023-03-14T01:35:11;1.83;;;1.07;;
54197;SDS011;40105;52.366;17.000;2023-03-14T01:37:36;2.97;;;0.90;;
54197;SDS011;40105;52.366;17.000;2023-03-14T01:40:01;2.05;;;0.90;;
54197;SDS011;40105;52.366;17.000;2023-03-14T01:42:46;1.70;;;0.77;;
54197;SDS011;40105;52.366;17.000;2023-03-14T01:45:52;4.68;;;1.00;;
54197;SDS011;40105;52.366;17.000;2023-03-14T01:48:02;1.02;;;0.55;;
54197;SDS011;40105;52.366;17.000;2023-03-14T01:50:27;2.73;;;1.20;;
54197;SDS011;40105;52.366;17.000;2023-03-14T01:52:52;3.67;;;0.90;;
54197;SDS011;40105;52.366;17.000;2023-03-14T01:55:19;1.13;;;0.70;;
54197;SDS011;40105;52.366;17.000;2023-03-14T01:57:46;3.28;;;1.13;;
54197;SDS011;40105;52.366;17.000;2023-03-14T02:00:14;1.25;;;0.80;;
54197;SDS011;40105;52.366;17.000;2023-03-14T02:02:44;5.05;;;0.95;;
54197;SDS011;40105;52.366;17.000;2023-03-14T02:05:10;4.90;;;1.67;;
54197;SDS011;40105;52.366;17.000;2023-03-14T02:07:50;1.60;;;0.90;;
54197;SDS011;40105;52.366;17.000;2023-03-14T02:10:16;6.18;;;1.13;;
54197;SDS011;40105;52.366;17.000;2023-03-14T02:12:43;1.73;;;1.13;;
54197;SDS011;40105;52.366;17.000;2023-03-14T02:15:09;3.08;;;1.63;;
54197;SDS011;40105;52.366;17.000;2023-03-14T02:17:35;3.97;;;2.22;;
54197;SDS011;40105;52.366;17.000;2023-03-14T02:22:41;5.28;;;1.65;;
54197;SDS011;40105;52.366;17.000;2023-03-14T02:27:35;3.60;;;2.08;;
54197;SDS011;40105;52.366;17.000;2023-03-14T02:32:45;5.15;;;2.30;;
54197;SDS011;40105;52.366;17.000;2023-03-14T02:35:32;4.82;;;2.38;;
54197;SDS011;40105;52.366;17.000;2023-03-14T02:38:04;7.45;;;3.15;;
54197;SDS011;40105;52.366;17.000;2023-03-14T02:42:56;8.00;;;2.67;;
54197;SDS011;40105;52.366;17.000;2023-03-14T02:47:48;6.82;;;3.30;;
54197;SDS011;40105;52.366;17.000;2023-03-14T02:50:16;5.45;;;2.63;;
54197;SDS011;40105;52.366;17.000;2023-03-14T02:52:42;5.55;;;2.47;;
54197;SDS011;40105;52.366;17.000;2023-03-14T02:55:08;4.63;;;2.93;;
54197;SDS011;40105;52.366;17.000;2023-03-14T02:57:33;8.23;;;3.95;;
54197;SDS011;40105;52.366;17.000;2023-03-14T02:59:58;7.67;;;3.93;;
54197;SDS011;40105;52.366;17.000;2023-03-14T03:02:24;6.93;;;3.47;;
54197;SDS011;40105;52.366;17.000;2023-03-14T03:04:49;7.17;;;2.97;;
54197;SDS011;40105;52.366;17.000;2023-03-14T03:07:15;8.77;;;3.83;;
54197;SDS011;40105;52.366;17.000;2023-03-14T03:09:40;9.90;;;3.07;;
54197;SDS011;40105;52.366;17.000;2023-03-14T03:12:05;4.73;;;2.67;;
54197;SDS011;40105;52.366;17.000;2023-03-14T03:14:30;8.63;;;3.23;;
54197;SDS011;40105;52.366;17.000;2023-03-14T03:16:55;8.00;;;3.93;;
54197;SDS011;40105;52.366;17.000;2023-03-14T03:19:21;6.37;;;4.33;;
54197;SDS011;40105;52.366;17.000;2023-03-14T03:21:46;9.03;;;5.13;;
54197;SDS011;40105;52.366;17.000;2023-03-14T03:24:11;8.97;;;3.97;;
54197;SDS011;40105;52.366;17.000;2023-03-14T03:26:36;17.23;;;5.37;;
54197;SDS011;40105;52.366;17.000;2023-03-14T03:29:01;8.80;;;3.83;;
54197;SDS011;40105;52.366;17.000;2023-03-14T03:31:27;9.32;;;4.28;;
54197;SDS011;40105;52.366;17.000;2023-03-14T03:33:52;7.97;;;4.43;;
54197;SDS011;40105;52.366;17.000;2023-03-14T03:36:20;14.43;;;4.23;;
54197;SDS011;40105;52.366;17.000;2023-03-14T03:38:45;7.13;;;4.32;;
54197;SDS011;40105;52.366;17.000;2023-03-14T03:41:30;8.02;;;4.55;;
54197;SDS011;40105;52.366;17.000;2023-03-14T03:43:55;11.55;;;4.60;;
54197;SDS011;40105;52.366;17.000;2023-03-14T03:46:20;11.93;;;4.88;;
54197;SDS011;40105;52.366;17.000;2023-03-14T03:48:46;8.53;;;4.67;;
54197;SDS011;40105;52.366;17.000;2023-03-14T03:51:12;8.47;;;4.60;;
54197;SDS011;40105;52.366;17.000;2023-03-14T03:53:37;9.63;;;4.18;;
54197;SDS011;40105;52.366;17.000;2023-03-14T03:56:03;8.77;;;4.53;;
54197;SDS011;40105;52.366;17.000;2023-03-14T03:58:28;12.88;;;3.92;;
54197;SDS011;40105;52.366;17.000;2023-03-14T04:00:53;12.48;;;4.28;;
54197;SDS011;40105;52.366;17.000;2023-03-14T04:03:19;12.63;;;5.30;;
54197;SDS011;40105;52.366;17.000;2023-03-14T04:08:27;9.60;;;4.05;;
54197;SDS011;40105;52.366;17.000;2023-03-14T04:10:59;9.30;;;4.00;;
54197;SDS011;40105;52.366;17.000;2023-03-14T04:13:25;8.50;;;3.38;;
54197;SDS011;40105;52.366;17.000;2023-03-14T04:15:51;6.70;;;3.42;;
54197;SDS011;40105;52.366;17.000;2023-03-14T04:18:16;9.10;;;4.60;;
54197;SDS011;40105;52.366;17.000;2023-03-14T04:20:42;8.75;;;3.97;;
54197;SDS011;40105;52.366;17.000;2023-03-14T04:23:07;10.03;;;5.03;;
54197;SDS011;40105;52.366;17.000;2023-03-14T04:25:51;11.25;;;4.25;;
54197;SDS011;40105;52.366;17.000;2023-03-14T04:28:16;12.73;;;4.20;;
54197;SDS011;40105;52.366;17.000;2023-03-14T04:30:41;13.43;;;4.00;;
54197;SDS011;40105;52.366;17.000;2023-03-14T04:33:26;8.73;;;3.58;;
54197;SDS011;40105;52.366;17.000;2023-03-14T04:35:53;9.07;;;3.97;;
54197;SDS011;40105;52.366;17.000;2023-03-14T04:38:18;16.75;;;4.40;;
54197;SDS011;40105;52.366;17.000;2023-03-14T04:40:43;42.40;;;17.63;;
54197;SDS011;40105;52.366;17.000;2023-03-14T04:43:09;37.65;;;14.05;;
54197;SDS011;40105;52.366;17.000;2023-03-14T04:45:35;55.42;;;19.52;;
54197;SDS011;40105;52.366;17.000;2023-03-14T04:48:00;23.40;;;9.57;;
54197;SDS011;40105;52.366;17.000;2023-03-14T04:50:25;25.33;;;9.90;;
54197;SDS011;40105;52.366;17.000;2023-03-14T04:52:50;36.87;;;12.40;;
54197;SDS011;40105;52.366;17.000;2023-03-14T04:55:15;20.47;;;7.00;;
54197;SDS011;40105;52.366;17.000;2023-03-14T04:57:41;64.70;;;25.00;;
54197;SDS011;40105;52.366;17.000;2023-03-14T05:00:06;35.10;;;11.67;;
54197;SDS011;40105;52.366;17.000;2023-03-14T05:02:32;12.10;;;6.45;;
54197;SDS011;40105;52.366;17.000;2023-03-14T05:04:57;15.30;;;6.37;;
54197;SDS011;40105;52.366;17.000;2023-03-14T05:07:22;31.03;;;14.53;;
54197;SDS011;40105;52.366;17.000;2023-03-14T05:09:47;66.77;;;25.87;;
54197;SDS011;40105;52.366;17.000;2023-03-14T05:12:31;34.90;;;14.18;;
54197;SDS011;40105;52.366;17.000;2023-03-14T05:14:56;56.83;;;24.87;;
54197;SDS011;40105;52.366;17.000;2023-03-14T05:17:21;26.23;;;11.07;;
54197;SDS011;40105;52.366;17.000;2023-03-14T05:20:05;15.38;;;8.77;;
54197;SDS011;40105;52.366;17.000;2023-03-14T05:22:34;12.27;;;5.78;;
54197;SDS011;40105;52.366;17.000;2023-03-14T05:24:59;14.50;;;4.30;;
54197;SDS011;40105;52.366;17.000;2023-03-14T05:27:24;11.43;;;6.93;;
54197;SDS011;40105;52.366;17.000;2023-03-14T05:30:08;10.32;;;4.75;;
54197;SDS011;40105;52.366;17.000;2023-03-14T05:32:34;10.07;;;4.68;;
54197;SDS011;40105;52.366;17.000;2023-03-14T05:34:59;7.60;;;3.87;;
54197;SDS011;40105;52.366;17.000;2023-03-14T05:37:25;14.60;;;4.87;;
54197;SDS011;40105;52.366;17.000;2023-03-14T05:39:50;13.20;;;4.47;;
54197;SDS011;40105;52.366;17.000;2023-03-14T05:42:15;10.43;;;4.67;;
54197;SDS011;40105;52.366;17.000;2023-03-14T05:44:40;16.53;;;5.63;;
54197;SDS011;40105;52.366;17.000;2023-03-14T05:47:05;8.80;;;4.70;;
54197;SDS011;40105;52.366;17.000;2023-03-14T05:49:31;16.20;;;5.00;;
54197;SDS011;40105;52.366;17.000;2023-03-14T05:51:56;9.83;;;5.43;;
54197;SDS011;40105;52.366;17.000;2023-03-14T05:54:21;15.67;;;6.33;;
54197;SDS011;40105;52.366;17.000;2023-03-14T05:56:46;12.17;;;5.50;;
54197;SDS011;40105;52.366;17.000;2023-03-14T05:59:11;14.77;;;6.30;;
54197;SDS011;40105;52.366;17.000;2023-03-14T06:01:38;13.77;;;5.88;;
54197;SDS011;40105;52.366;17.000;2023-03-14T06:04:03;11.50;;;5.27;;
54197;SDS011;40105;52.366;17.000;2023-03-14T06:06:29;10.23;;;4.40;;
54197;SDS011;40105;52.366;17.000;2023-03-14T06:08:54;19.97;;;4.77;;
54197;SDS011;40105;52.366;17.000;2023-03-14T06:11:19;7.30;;;4.33;;
54197;SDS011;40105;52.366;17.000;2023-03-14T06:13:44;14.50;;;6.40;;
54197;SDS011;40105;52.366;17.000;2023-03-14T06:16:09;15.45;;;6.22;;
54197;SDS011;40105;52.366;17.000;2023-03-14T06:18:35;11.30;;;6.20;;
54197;SDS011;40105;52.366;17.000;2023-03-14T06:21:00;18.17;;;5.83;;
54197;SDS011;40105;52.366;17.000;2023-03-14T06:23:25;11.27;;;5.13;;
54197;SDS011;40105;52.366;17.000;2023-03-14T06:25:50;11.30;;;4.60;;
54197;SDS011;40105;52.366;17.000;2023-03-14T06:28:15;7.90;;;3.90;;
54197;SDS011;40105;52.366;17.000;2023-03-14T06:30:40;9.13;;;5.20;;
54197;SDS011;40105;52.366;17.000;2023-03-14T06:33:06;10.23;;;4.63;;
54197;SDS011;40105;52.366;17.000;2023-03-14T06:35:31;13.93;;;5.80;;
54197;SDS011;40105;52.366;17.000;2023-03-14T06:37:56;11.80;;;6.13;;
54197;SDS011;40105;52.366;17.000;2023-03-14T06:40:22;20.42;;;9.07;;
54197;SDS011;40105;52.366;17.000;2023-03-14T06:42:48;10.70;;;4.47;;
54197;SDS011;40105;52.366;17.000;2023-03-14T06:45:13;11.73;;;3.63;;
54197;SDS011;40105;52.366;17.000;2023-03-14T06:47:38;14.23;;;4.78;;
54197;SDS011;40105;52.366;17.000;2023-03-14T06:50:04;10.07;;;3.33;;
54197;SDS011;40105;52.366;17.000;2023-03-14T06:52:29;8.68;;;3.42;;
54197;SDS011;40105;52.366;17.000;2023-03-14T06:54:55;8.67;;;3.37;;
54197;SDS011;40105;52.366;17.000;2023-03-14T06:57:20;7.53;;;4.50;;
54197;SDS011;40105;52.366;17.000;2023-03-14T06:59:45;11.10;;;2.60;;
54197;SDS011;40105;52.366;17.000;2023-03-14T07:02:10;8.57;;;3.47;;
54197;SDS011;40105;52.366;17.000;2023-03-14T07:04:37;10.45;;;4.18;;
54197;SDS011;40105;52.366;17.000;2023-03-14T07:07:02;6.60;;;3.40;;
54197;SDS011;40105;52.366;17.000;2023-03-14T07:09:27;9.97;;;3.97;;
54197;SDS011;40105;52.366;17.000;2023-03-14T07:11:52;10.37;;;3.63;;
54197;SDS011;40105;52.366;17.000;2023-03-14T07:14:17;5.23;;;3.10;;
54197;SDS011;40105;52.366;17.000;2023-03-14T07:16:43;10.90;;;3.83;;
54197;SDS011;40105;52.366;17.000;2023-03-14T07:19:08;7.40;;;3.53;;
54197;SDS011;40105;52.366;17.000;2023-03-14T07:21:33;11.13;;;3.23;;
54197;SDS011;40105;52.366;17.000;2023-03-14T07:23:59;6.35;;;2.63;;
54197;SDS011;40105;52.366;17.000;2023-03-14T07:26:24;5.33;;;2.53;;
54197;SDS011;40105;52.366;17.000;2023-03-14T07:28:50;11.80;;;3.63;;
54197;SDS011;40105;52.366;17.000;2023-03-14T07:31:15;7.83;;;4.30;;
54197;SDS011;40105;52.366;17.000;2023-03-14T07:33:40;10.27;;;3.27;;
54197;SDS011;40105;52.366;17.000;2023-03-14T07:36:05;6.97;;;2.83;;
54197;SDS011;40105;52.366;17.000;2023-03-14T07:38:31;6.35;;;3.10;;
54197;SDS011;40105;52.366;17.000;2023-03-14T07:41:03;5.75;;;2.85;;
54197;SDS011;40105;52.366;17.000;2023-03-14T07:43:28;4.72;;;2.60;;
54197;SDS011;40105;52.366;17.000;2023-03-14T07:45:54;9.80;;;2.90;;
54197;SDS011;40105;52.366;17.000;2023-03-14T07:48:19;8.63;;;3.40;;
54197;SDS011;40105;52.366;17.000;2023-03-14T07:50:47;6.03;;;2.97;;
54197;SDS011;40105;52.366;17.000;2023-03-14T07:53:13;8.75;;;2.70;;
54197;SDS011;40105;52.366;17.000;2023-03-14T07:55:39;10.20;;;2.83;;
54197;SDS011;40105;52.366;17.000;2023-03-14T07:58:04;5.97;;;2.90;;
54197;SDS011;40105;52.366;17.000;2023-03-14T08:00:29;4.70;;;2.60;;
54197;SDS011;40105;52.366;17.000;2023-03-14T08:02:55;8.00;;;2.87;;
54197;SDS011;40105;52.366;17.000;2023-03-14T08:05:20;7.63;;;3.00;;
54197;SDS011;40105;52.366;17.000;2023-03-14T08:07:45;11.90;;;2.97;;
54197;SDS011;40105;52.366;17.000;2023-03-14T08:10:10;10.07;;;2.93;;
54197;SDS011;40105;52.366;17.000;2023-03-14T08:12:35;7.23;;;2.73;;
54197;SDS011;40105;52.366;17.000;2023-03-14T08:15:01;6.90;;;3.70;;
54197;SDS011;40105;52.366;17.000;2023-03-14T08:17:27;9.50;;;4.10;;
54197;SDS011;40105;52.366;17.000;2023-03-14T08:19:52;8.80;;;3.17;;
54197;SDS011;40105;52.366;17.000;2023-03-14T08:22:17;7.68;;;2.88;;
54197;SDS011;40105;52.366;17.000;2023-03-14T08:24:42;11.60;;;9.73;;
54197;SDS011;40105;52.366;17.000;2023-03-14T08:27:07;3.97;;;1.70;;
54197;SDS011;40105;52.366;17.000;2023-03-14T08:29:32;11.17;;;1.97;;
54197;SDS011;40105;52.366;17.000;2023-03-14T08:31:58;4.20;;;1.90;;
54197;SDS011;40105;52.366;17.000;2023-03-14T08:34:23;6.07;;;1.63;;
54197;SDS011;40105;52.366;17.000;2023-03-14T08:36:48;3.20;;;1.50;;
54197;SDS011;40105;52.366;17.000;2023-03-14T08:39:13;5.57;;;1.57;;
54197;SDS011;40105;52.366;17.000;2023-03-14T08:41:38;3.90;;;1.27;;
54197;SDS011;40105;52.366;17.000;2023-03-14T08:44:08;3.20;;;1.60;;
54197;SDS011;40105;52.366;17.000;2023-03-14T08:46:33;4.30;;;1.48;;
54197;SDS011;40105;52.366;17.000;2023-03-14T08:48:58;4.97;;;1.73;;
54197;SDS011;40105;52.366;17.000;2023-03-14T08:51:24;6.40;;;1.67;;
54197;SDS011;40105;52.366;17.000;2023-03-14T08:53:49;5.93;;;1.60;;
54197;SDS011;40105;52.366;17.000;2023-03-14T08:56:14;6.37;;;1.60;;
54197;SDS011;40105;52.366;17.000;2023-03-14T08:58:39;6.00;;;1.43;;
54197;SDS011;40105;52.366;17.000;2023-03-14T09:01:07;4.95;;;1.15;;
54197;SDS011;40105;52.366;17.000;2023-03-14T09:03:32;6.25;;;1.55;;
54197;SDS011;40105;52.366;17.000;2023-03-14T09:06:01;5.30;;;1.33;;
54197;SDS011;40105;52.366;17.000;2023-03-14T09:08:27;3.95;;;1.60;;
54197;SDS011;40105;52.366;17.000;2023-03-14T09:10:52;10.05;;;2.03;;
54197;SDS011;40105;52.366;17.000;2023-03-14T09:13:18;7.53;;;2.10;;
54197;SDS011;40105;52.366;17.000;2023-03-14T09:15:43;4.33;;;1.67;;
54197;SDS011;40105;52.366;17.000;2023-03-14T09:18:08;4.70;;;1.87;;
54197;SDS011;40105;52.366;17.000;2023-03-14T09:20:33;8.43;;;2.10;;
54197;SDS011;40105;52.366;17.000;2023-03-14T09:22:58;8.73;;;2.00;;
54197;SDS011;40105;52.366;17.000;2023-03-14T09:25:23;7.57;;;2.37;;
54197;SDS011;40105;52.366;17.000;2023-03-14T09:27:49;5.87;;;2.10;;
54197;SDS011;40105;52.366;17.000;2023-03-14T09:30:14;4.25;;;2.15;;
54197;SDS011;40105;52.366;17.000;2023-03-14T09:32:39;9.67;;;2.17;;
54197;SDS011;40105;52.366;17.000;2023-03-14T09:35:04;5.47;;;1.50;;
54197;SDS011;40105;52.366;17.000;2023-03-14T09:37:29;5.63;;;1.43;;
54197;SDS011;40105;52.366;17.000;2023-03-14T09:39:54;8.97;;;3.40;;
54197;SDS011;40105;52.366;17.000;2023-03-14T09:42:21;5.43;;;2.60;;
54197;SDS011;40105;52.366;17.000;2023-03-14T09:47:50;7.95;;;1.95;;
54197;SDS011;40105;52.366;17.000;2023-03-14T09:50:15;13.32;;;2.15;;
54197;SDS011;40105;52.366;17.000;2023-03-14T09:52:42;16.17;;;2.40;;
54197;SDS011;40105;52.366;17.000;2023-03-14T09:55:15;11.60;;;1.75;;
54197;SDS011;40105;52.366;17.000;2023-03-14T09:57:41;6.28;;;1.88;;
54197;SDS011;40105;52.366;17.000;2023-03-14T10:00:12;9.27;;;1.83;;
54197;SDS011;40105;52.366;17.000;2023-03-14T10:02:40;6.15;;;2.38;;
54197;SDS011;40105;52.366;17.000;2023-03-14T10:05:16;6.78;;;2.03;;
54197;SDS011;40105;52.366;17.000;2023-03-14T10:07:42;6.38;;;2.22;;
54197;SDS011;40105;52.366;17.000;2023-03-14T10:15:34;8.27;;;2.33;;
54197;SDS011;40105;52.366;17.000;2023-03-14T10:18:00;4.80;;;1.50;;
54197;SDS011;40105;52.366;17.000;2023-03-14T10:20:36;8.52;;;1.83;;
54197;SDS011;40105;52.366;17.000;2023-03-14T10:23:06;5.85;;;2.35;;
54197;SDS011;40105;52.366;17.000;2023-03-14T10:25:33;7.60;;;2.42;;
54197;SDS011;40105;52.366;17.000;2023-03-14T10:27:58;6.45;;;2.65;;
54197;SDS011;40105;52.366;17.000;2023-03-14T10:30:29;9.30;;;1.92;;
54197;SDS011;40105;52.366;17.000;2023-03-14T10:32:55;13.27;;;2.47;;
54197;SDS011;40105;52.366;17.000;2023-03-14T10:35:21;8.83;;;1.83;;
54197;SDS011;40105;52.366;17.000;2023-03-14T10:37:59;8.10;;;2.20;;
54197;SDS011;40105;52.366;17.000;2023-03-14T10:40:27;12.88;;;2.25;;
54197;SDS011;40105;52.366;17.000;2023-03-14T10:42:53;17.77;;;2.20;;
54197;SDS011;40105;52.366;17.000;2023-03-14T10:47:48;7.28;;;2.40;;
54197;SDS011;40105;52.366;17.000;2023-03-14T10:50:21;3.50;;;1.42;;
54197;SDS011;40105;52.366;17.000;2023-03-14T10:52:47;4.53;;;1.80;;
54197;SDS011;40105;52.366;17.000;2023-03-14T10:55:13;7.18;;;2.15;;
54197;SDS011;40105;52.366;17.000;2023-03-14T10:57:39;9.90;;;2.13;;
54197;SDS011;40105;52.366;17.000;2023-03-14T11:00:05;8.10;;;2.75;;
54197;SDS011;40105;52.366;17.000;2023-03-14T11:02:43;12.75;;;2.13;;
54197;SDS011;40105;52.366;17.000;2023-03-14T11:05:45;7.75;;;2.22;;
54197;SDS011;40105;52.366;17.000;2023-03-14T11:08:07;6.50;;;2.60;;
54197;SDS011;40105;52.366;17.000;2023-03-14T11:10:35;6.60;;;2.60;;
54197;SDS011;40105;52.366;17.000;2023-03-14T11:15:41;6.90;;;1.90;;
54197;SDS011;40105;52.366;17.000;2023-03-14T11:20:47;5.82;;;1.95;;
54197;SDS011;40105;52.366;17.000;2023-03-14T11:23:23;8.05;;;2.30;;
54197;SDS011;40105;52.366;17.000;2023-03-14T11:25:54;5.28;;;2.38;;
54197;SDS011;40105;52.366;17.000;2023-03-14T11:28:29;8.02;;;2.70;;
54197;SDS011;40105;52.366;17.000;2023-03-14T11:31:03;23.70;;;2.53;;
54197;SDS011;40105;52.366;17.000;2023-03-14T11:34:13;13.43;;;3.08;;
54197;SDS011;40105;52.366;17.000;2023-03-14T11:36:21;8.70;;;2.38;;
54197;SDS011;40105;52.366;17.000;2023-03-14T11:38:50;12.13;;;2.47;;
54197;SDS011;40105;52.366;17.000;2023-03-14T11:41:17;14.25;;;3.35;;
54197;SDS011;40105;52.366;17.000;2023-03-14T11:43:46;8.15;;;2.63;;
54197;SDS011;40105;52.366;17.000;2023-03-14T11:46:17;5.93;;;2.50;;
54197;SDS011;40105;52.366;17.000;2023-03-14T11:48:44;5.40;;;2.28;;
54197;SDS011;40105;52.366;17.000;2023-03-14T11:51:16;22.13;;;2.83;;
54197;SDS011;40105;52.366;17.000;2023-03-14T11:53:45;8.50;;;2.78;;
54197;SDS011;40105;52.366;17.000;2023-03-14T11:56:16;9.63;;;2.88;;
54197;SDS011;40105;52.366;17.000;2023-03-14T11:58:46;3.92;;;1.50;;
54197;SDS011;40105;52.366;17.000;2023-03-14T12:01:12;13.60;;;2.22;;
54197;SDS011;40105;52.366;17.000;2023-03-14T12:03:42;9.68;;;2.88;;
54197;SDS011;40105;52.366;17.000;2023-03-14T12:06:20;5.97;;;1.65;;
54197;SDS011;40105;52.366;17.000;2023-03-14T12:08:47;10.43;;;2.55;;
54197;SDS011;40105;52.366;17.000;2023-03-14T12:13:49;7.80;;;2.88;;
54197;SDS011;40105;52.366;17.000;2023-03-14T12:18:50;7.53;;;2.47;;
54197;SDS011;40105;52.366;17.000;2023-03-14T12:21:15;10.55;;;2.67;;
54197;SDS011;40105;52.366;17.000;2023-03-14T12:23:51;7.03;;;2.78;;
54197;SDS011;40105;52.366;17.000;2023-03-14T12:26:18;7.05;;;2.63;;
54197;SDS011;40105;52.366;17.000;2023-03-14T12:28:48;8.23;;;3.40;;
54197;SDS011;40105;52.366;17.000;2023-03-14T12:36:48;2.53;;;1.42;;
54197;SDS011;40105;52.366;17.000;2023-03-14T12:41:45;11.45;;;1.85;;
54197;SDS011;40105;52.366;17.000;2023-03-14T12:44:37;4.45;;;1.35;;
54197;SDS011;40105;52.366;17.000;2023-03-14T12:46:57;8.23;;;1.35;;
54197;SDS011;40105;52.366;17.000;2023-03-14T12:49:22;8.07;;;1.45;;
54197;SDS011;40105;52.366;17.000;2023-03-14T12:51:58;5.28;;;2.13;;
54197;SDS011;40105;52.366;17.000;2023-03-14T12:57:13;3.83;;;1.13;;
54197;SDS011;40105;52.366;17.000;2023-03-14T13:02:17;7.75;;;1.60;;
54197;SDS011;40105;52.366;17.000;2023-03-14T13:04:51;4.65;;;2.03;;
54197;SDS011;40105;52.366;17.000;2023-03-14T13:10:09;5.93;;;1.65;;
54197;SDS011;40105;52.366;17.000;2023-03-14T13:12:51;5.82;;;1.10;;
54197;SDS011;40105;52.366;17.000;2023-03-14T13:15:40;3.83;;;1.13;;
54197;SDS011;40105;52.366;17.000;2023-03-14T13:20:43;2.92;;;0.93;;
54197;SDS011;40105;52.366;17.000;2023-03-14T13:23:19;2.63;;;0.90;;
54197;SDS011;40105;52.366;17.000;2023-03-14T13:25:44;5.15;;;1.08;;
54197;SDS011;40105;52.366;17.000;2023-03-14T13:28:10;9.60;;;1.00;;
54197;SDS011;40105;52.366;17.000;2023-03-14T13:30:40;11.13;;;1.43;;
54197;SDS011;40105;52.366;17.000;2023-03-14T13:33:05;2.00;;;1.02;;
54197;SDS011;40105;52.366;17.000;2023-03-14T13:35:38;13.20;;;1.00;;
54197;SDS011;40105;52.366;17.000;2023-03-14T13:38:03;19.02;;;1.48;;
54197;SDS011;40105;52.366;17.000;2023-03-14T13:40:32;10.63;;;1.10;;
54197;SDS011;40105;52.366;17.000;2023-03-14T13:48:15;14.33;;;1.50;;
54197;SDS011;40105;52.366;17.000;2023-03-14T13:50:45;24.40;;;2.28;;
54197;SDS011;40105;52.366;17.000;2023-03-14T13:53:11;9.68;;;1.55;;
54197;SDS011;40105;52.366;17.000;2023-03-14T13:55:36;6.78;;;1.38;;
54197;SDS011;40105;52.366;17.000;2023-03-14T13:58:01;1.90;;;0.90;;
54197;SDS011;40105;52.366;17.000;2023-03-14T14:00:27;7.77;;;1.87;;
54197;SDS011;40105;52.366;17.000;2023-03-14T14:02:53;12.77;;;1.70;;
54197;SDS011;40105;52.366;17.000;2023-03-14T14:05:19;5.57;;;1.70;;
54197;SDS011;40105;52.366;17.000;2023-03-14T14:07:44;6.57;;;2.10;;
54197;SDS011;40105;52.366;17.000;2023-03-14T14:10:10;7.10;;;1.55;;
54197;SDS011;40105;52.366;17.000;2023-03-14T14:12:40;3.60;;;1.35;;
54197;SDS011;40105;52.366;17.000;2023-03-14T14:15:09;5.32;;;1.20;;
54197;SDS011;40105;52.366;17.000;2023-03-14T14:17:37;5.20;;;1.88;;
54197;SDS011;40105;52.366;17.000;2023-03-14T14:20:04;7.22;;;1.17;;
54197;SDS011;40105;52.366;17.000;2023-03-14T14:22:30;4.50;;;0.93;;
54197;SDS011;40105;52.366;17.000;2023-03-14T14:24:55;3.13;;;1.13;;
54197;SDS011;40105;52.366;17.000;2023-03-14T14:27:28;2.90;;;1.20;;
54197;SDS011;40105;52.366;17.000;2023-03-14T14:30:00;3.58;;;0.88;;
54197;SDS011;40105;52.366;17.000;2023-03-14T14:32:26;2.97;;;0.90;;
54197;SDS011;40105;52.366;17.000;2023-03-14T14:37:23;7.88;;;1.25;;
54197;SDS011;40105;52.366;17.000;2023-03-14T14:39:49;6.47;;;0.93;;
54197;SDS011;40105;52.366;17.000;2023-03-14T14:42:16;1.45;;;0.68;;
54197;SDS011;40105;52.366;17.000;2023-03-14T14:44:42;5.97;;;1.60;;
54197;SDS011;40105;52.366;17.000;2023-03-14T14:47:11;6.20;;;1.33;;
54197;SDS011;40105;52.366;17.000;2023-03-14T14:49:37;4.63;;;1.25;;
54197;SDS011;40105;52.366;17.000;2023-03-14T14:52:05;11.48;;;1.77;;
54197;SDS011;40105;52.366;17.000;2023-03-14T14:54:37;3.30;;;1.27;;
54197;SDS011;40105;52.366;17.000;2023-03-14T14:57:05;6.85;;;1.60;;
54197;SDS011;40105;52.366;17.000;2023-03-14T14:59:30;8.35;;;2.25;;
54197;SDS011;40105;52.366;17.000;2023-03-14T15:01:57;4.57;;;1.48;;
54197;SDS011;40105;52.366;17.000;2023-03-14T15:04:23;3.25;;;1.30;;
54197;SDS011;40105;52.366;17.000;2023-03-14T15:06:48;4.35;;;1.27;;
54197;SDS011;40105;52.366;17.000;2023-03-14T15:09:15;3.83;;;1.20;;
54197;SDS011;40105;52.366;17.000;2023-03-14T15:11:42;5.63;;;1.63;;
54197;SDS011;40105;52.366;17.000;2023-03-14T15:14:07;6.32;;;1.80;;
54197;SDS011;40105;52.366;17.000;2023-03-14T15:16:32;4.67;;;1.30;;
54197;SDS011;40105;52.366;17.000;2023-03-14T15:18:59;6.18;;;1.42;;
54197;SDS011;40105;52.366;17.000;2023-03-14T15:21:25;3.10;;;1.38;;
54197;SDS011;40105;52.366;17.000;2023-03-14T15:23:50;18.35;;;5.30;;
54197;SDS011;40105;52.366;17.000;2023-03-14T15:26:19;31.48;;;10.85;;
54197;SDS011;40105;52.366;17.000;2023-03-14T15:28:45;26.90;;;11.77;;
54197;SDS011;40105;52.366;17.000;2023-03-14T15:31:11;24.45;;;10.02;;
54197;SDS011;40105;52.366;17.000;2023-03-14T15:33:36;22.75;;;9.73;;
54197;SDS011;40105;52.366;17.000;2023-03-14T15:36:02;9.33;;;4.03;;
54197;SDS011;40105;52.366;17.000;2023-03-14T15:38:28;8.48;;;3.08;;
54197;SDS011;40105;52.366;17.000;2023-03-14T15:40:53;6.83;;;2.87;;